Time;durP1;ratioP1;P1;durP2;ratioP2;P2;SDS_P1;SDS_P2;PMS_P1;PMS_P2;Temp;Humidity;BMP_temperature;BMP_pressure;BME280_temperature;BME280_humidity;BME280_pressure;Samples;Min_cycle;Max_cycle;Signal;HPM_P1;HPM_P2
2021/07/06 00:01:59;;;;;;;8.35;5.28;;;18.90;88.10;;;;;;5072997;28;20071;-89
2021/07/06 00:04:25;;;;;;;8.32;5.43;;;18.90;88.20;;;;;;5074266;28;20048;-90
2021/07/06 00:06:51;;;;;;;9.40;5.70;;;18.90;88.40;;;;;;5073330;28;20044;-89
2021/07/06 00:09:17;;;;;;;8.68;5.60;;;18.80;88.40;;;;;;5073533;28;20450;-89
2021/07/06 00:11:43;;;;;;;8.45;5.60;;;18.80;88.30;;;;;;5073709;28;20109;-89
2021/07/06 00:14:09;;;;;;;7.68;5.55;;;18.80;88.40;;;;;;5073452;28;20072;-89
2021/07/06 00:16:35;;;;;;;6.90;5.28;;;18.80;88.40;;;;;;5073122;28;20437;-89
2021/07/06 00:19:01;;;;;;;9.63;6.80;;;18.80;88.30;;;;;;5073314;28;20447;-89
2021/07/06 00:21:27;;;;;;;7.93;6.10;;;18.80;87.90;;;;;;5073067;28;20052;-89
2021/07/06 00:23:53;;;;;;;7.90;5.50;;;18.80;88.20;;;;;;5073722;28;20484;-89
2021/07/06 00:26:40;;;;;;;7.30;5.80;;;18.80;88.10;;;;;;5073812;28;20056;-89
2021/07/06 00:29:05;;;;;;;10.40;6.60;;;18.70;88.20;;;;;;5071909;28;20044;-89
2021/07/06 00:31:31;;;;;;;9.45;6.90;;;18.70;88.40;;;;;;5073442;28;20044;-90
2021/07/06 00:33:57;;;;;;;8.32;6.30;;;18.70;88.30;;;;;;5073400;28;20044;-90
2021/07/06 00:36:22;;;;;;;9.50;6.72;;;18.70;88.30;;;;;;5072903;28;20052;-89
2021/07/06 00:38:49;;;;;;;9.18;6.50;;;18.70;88.50;;;;;;5072900;28;20036;-90
2021/07/06 00:41:14;;;;;;;9.35;6.80;;;18.70;88.00;;;;;;5073201;28;20381;-89
2021/07/06 00:43:40;;;;;;;9.52;6.63;;;18.60;87.90;;;;;;5072209;28;20041;-89
2021/07/06 00:46:06;;;;;;;9.15;6.38;;;18.60;88.20;;;;;;5073068;28;20389;-89
2021/07/06 00:48:33;;;;;;;8.75;6.13;;;18.60;88.40;;;;;;5073025;28;20049;-90
2021/07/06 00:50:59;;;;;;;8.70;6.45;;;18.60;88.30;;;;;;5072641;28;20055;-89
2021/07/06 00:53:27;;;;;;;9.02;6.47;;;18.60;88.20;;;;;;5073293;28;20048;-89
2021/07/06 00:55:55;;;;;;;10.00;7.25;;;18.60;88.40;;;;;;5073217;28;20071;-89
2021/07/06 00:58:22;;;;;;;9.25;6.28;;;18.50;88.20;;;;;;5072124;28;20076;-89
2021/07/06 01:00:48;;;;;;;8.23;6.35;;;18.50;88.20;;;;;;5071876;28;20044;-89
2021/07/06 01:03:13;;;;;;;16.80;6.78;;;18.50;88.70;;;;;;5073288;28;20059;-89
2021/07/06 01:05:40;;;;;;;7.95;6.85;;;18.50;88.10;;;;;;5072933;28;20052;-90
2021/07/06 01:08:09;;;;;;;7.97;6.00;;;18.50;88.50;;;;;;5073276;28;20113;-89
2021/07/06 01:10:35;;;;;;;9.18;6.32;;;18.50;88.00;;;;;;5072404;28;20415;-89
2021/07/06 01:13:02;;;;;;;9.10;6.35;;;18.50;88.40;;;;;;5073020;28;20044;-89
2021/07/06 01:15:30;;;;;;;9.45;6.25;;;18.40;88.40;;;;;;5072321;28;20515;-89
2021/07/06 01:18:11;;;;;;;8.45;6.32;;;18.40;88.60;;;;;;5072545;28;20047;-89
2021/07/06 01:20:39;;;;;;;10.57;6.25;;;18.40;87.80;;;;;;5072330;28;20459;-89
2021/07/06 01:23:06;;;;;;;8.40;6.00;;;18.40;88.30;;;;;;5072924;28;20519;-89
2021/07/06 01:25:37;;;;;;;8.05;6.00;;;18.40;88.20;;;;;;5071980;28;20045;-89
2021/07/06 01:28:04;;;;;;;8.30;5.75;;;18.40;88.20;;;;;;5072978;28;20068;-88
2021/07/06 01:30:31;;;;;;;7.85;5.95;;;18.40;88.40;;;;;;5071644;28;20044;-90
2021/07/06 01:32:57;;;;;;;8.30;5.68;;;18.30;88.20;;;;;;5071954;28;20128;-90
2021/07/06 01:35:23;;;;;;;7.45;6.03;;;18.30;88.00;;;;;;5073003;28;20436;-89
2021/07/06 01:37:58;;;;;;;9.30;6.13;;;18.40;88.60;;;;;;5072134;28;20125;-89
2021/07/06 01:40:26;;;;;;;8.63;6.10;;;18.30;88.40;;;;;;5072179;28;20131;-89
2021/07/06 01:42:52;;;;;;;9.38;5.97;;;18.30;88.70;;;;;;5072936;28;20048;-89
2021/07/06 01:45:22;;;;;;;9.55;6.03;;;18.30;89.40;;;;;;5072461;28;20056;-88
2021/07/06 01:47:54;;;;;;;10.90;6.15;;;18.20;88.90;;;;;;5071877;28;20055;-89
2021/07/06 01:50:33;;;;;;;8.07;5.85;;;18.20;89.10;;;;;;5072260;28;20056;-89
2021/07/06 01:53:02;;;;;;;7.75;5.82;;;18.20;89.30;;;;;;5055018;28;20055;-89
2021/07/06 01:55:36;;;;;;;7.22;5.68;;;18.20;89.10;;;;;;5072491;28;20048;-89
2021/07/06 01:58:06;;;;;;;8.98;6.38;;;18.20;89.20;;;;;;5072427;28;20070;-88
2021/07/06 02:00:34;;;;;;;7.78;5.68;;;18.20;89.60;;;;;;5071876;28;20041;-89
2021/07/06 02:03:01;;;;;;;9.05;6.18;;;18.20;89.80;;;;;;5072602;28;20055;-87
2021/07/06 02:05:37;;;;;;;11.00;6.32;;;18.20;90.10;;;;;;5072395;28;20045;-88
2021/07/06 02:08:04;;;;;;;8.00;5.68;;;18.20;90.20;;;;;;5071694;28;20454;-89
2021/07/06 02:10:32;;;;;;;12.90;6.40;;;18.20;90.20;;;;;;5072033;28;20519;-89
2021/07/06 02:12:59;;;;;;;8.07;5.97;;;18.10;90.30;;;;;;5075384;28;20049;-88
2021/07/06 02:15:26;;;;;;;8.48;6.05;;;18.10;90.20;;;;;;5075585;28;20052;-89
2021/07/06 02:17:52;;;;;;;10.90;6.80;;;18.10;90.30;;;;;;5075596;28;20052;-89
2021/07/06 02:20:19;;;;;;;8.48;6.65;;;18.10;90.50;;;;;;5076284;28;20048;-88
2021/07/06 02:22:47;;;;;;;11.45;7.20;;;18.10;90.70;;;;;;5074784;28;20518;-88
2021/07/06 02:25:14;;;;;;;10.40;7.07;;;18.10;90.80;;;;;;5076205;28;20049;-88
2021/07/06 02:27:41;;;;;;;11.02;6.75;;;18.10;90.90;;;;;;5074807;28;20068;-89
2021/07/06 02:30:09;;;;;;;10.00;7.30;;;18.10;91.00;;;;;;5075918;28;20048;-89
2021/07/06 02:32:35;;;;;;;10.48;7.22;;;18.10;91.00;;;;;;5075842;28;20056;-88
2021/07/06 02:35:03;;;;;;;11.98;6.47;;;18.00;91.10;;;;;;5075400;28;20484;-88
2021/07/06 02:37:29;;;;;;;11.02;6.60;;;18.10;91.00;;;;;;5075346;28;20049;-87
2021/07/06 02:39:55;;;;;;;8.77;6.78;;;18.00;91.00;;;;;;5075644;28;20131;-89
2021/07/06 02:42:20;;;;;;;8.68;6.40;;;18.00;91.00;;;;;;5075132;28;20056;-88
2021/07/06 02:44:46;;;;;;;9.45;6.30;;;18.00;91.00;;;;;;5075174;28;20532;-88
2021/07/06 02:47:12;;;;;;;10.02;6.70;;;18.00;91.10;;;;;;5075405;28;20146;-88
2021/07/06 02:49:37;;;;;;;9.93;7.05;;;18.00;91.10;;;;;;5074185;28;20044;-89
2021/07/06 02:52:03;;;;;;;10.70;6.10;;;18.00;91.20;;;;;;5075598;28;20058;-88
2021/07/06 02:54:29;;;;;;;7.75;6.05;;;18.00;91.20;;;;;;5075165;28;20048;-90
2021/07/06 02:56:55;;;;;;;10.85;6.38;;;18.00;91.00;;;;;;5074555;28;20079;-89
2021/07/06 02:59:21;;;;;;;10.13;6.40;;;18.00;91.00;;;;;;5075208;28;20078;-89
2021/07/06 03:01:46;;;;;;;12.18;6.53;;;18.00;91.10;;;;;;5075016;28;20060;-89
2021/07/06 03:04:12;;;;;;;14.05;6.93;;;18.10;91.30;;;;;;5074711;28;20056;-88
2021/07/06 03:06:38;;;;;;;11.15;6.85;;;18.00;91.30;;;;;;5074885;28;20488;-87
2021/07/06 03:09:04;;;;;;;8.25;5.72;;;18.00;91.40;;;;;;5074431;28;20072;-89
2021/07/06 03:11:29;;;;;;;8.45;6.20;;;18.00;91.30;;;;;;5074201;28;20060;-87
2021/07/06 03:13:55;;;;;;;8.65;6.35;;;18.00;91.40;;;;;;5075536;28;20468;-89
2021/07/06 03:16:20;;;;;;;9.93;7.05;;;18.00;91.50;;;;;;5075157;28;20487;-89
2021/07/06 03:18:46;;;;;;;10.30;6.45;;;18.10;91.50;;;;;;5073956;28;20140;-88
2021/07/06 03:21:12;;;;;;;8.27;6.22;;;18.00;91.50;;;;;;5074932;28;20086;-89
2021/07/06 03:23:37;;;;;;;9.75;6.50;;;18.00;91.40;;;;;;5055746;28;20106;-89
2021/07/06 03:26:03;;;;;;;11.88;7.53;;;18.00;91.30;;;;;;5074161;28;20044;-89
2021/07/06 03:28:29;;;;;;;12.00;6.47;;;18.00;91.60;;;;;;5074264;28;20100;-88
2021/07/06 03:30:55;;;;;;;8.68;6.38;;;18.10;91.60;;;;;;5074273;28;20126;-89
2021/07/06 03:33:21;;;;;;;8.32;6.18;;;18.00;91.50;;;;;;5074517;28;20072;-88
2021/07/06 03:35:46;;;;;;;10.88;6.55;;;18.00;91.50;;;;;;5074240;28;20040;-89
2021/07/06 03:38:13;;;;;;;9.30;6.43;;;18.00;91.70;;;;;;5074018;28;20139;-88
2021/07/06 03:40:39;;;;;;;10.73;6.63;;;18.00;91.60;;;;;;5074065;28;20080;-89
2021/07/06 03:43:08;;;;;;;11.00;6.00;;;18.00;91.80;;;;;;5074678;28;20106;-90
2021/07/06 03:45:34;;;;;;;12.35;6.00;;;18.00;91.90;;;;;;5055754;28;20438;-88
2021/07/06 03:47:59;;;;;;;8.02;5.63;;;18.00;92.10;;;;;;5074303;28;20056;-89
2021/07/06 03:50:26;;;;;;;8.88;6.60;;;18.00;91.90;;;;;;5074528;28;20097;-88
2021/07/06 03:52:59;;;;;;;10.75;6.72;;;18.00;92.00;;;;;;5055713;28;20057;-89
2021/07/06 03:55:26;;;;;;;;;;;18.00;92.30;;;;;;5074580;28;20110;-86
2021/07/06 03:57:52;;;;;;;9.13;5.80;;;17.90;92.10;;;;;;5073964;28;20375;-88
2021/07/06 04:00:25;;;;;;;10.20;6.00;;;17.90;92.10;;;;;;5073680;28;20047;-87
2021/07/06 04:02:51;;;;;;;8.52;5.72;;;18.00;92.20;;;;;;5074064;28;20048;-87
2021/07/06 04:05:18;;;;;;;10.23;6.10;;;18.00;92.20;;;;;;5074260;28;20050;-86
2021/07/06 04:07:44;;;;;;;8.73;5.65;;;18.00;92.30;;;;;;5072683;28;20049;-86
2021/07/06 04:10:13;;;;;;;8.68;5.63;;;18.00;92.30;;;;;;5074107;28;20044;-87
2021/07/06 04:12:41;;;;;;;8.93;5.47;;;18.00;92.30;;;;;;5073916;28;20052;-86
2021/07/06 04:15:12;;;;;;;8.07;5.30;;;18.00;92.30;;;;;;5072924;28;20094;-87
2021/07/06 04:17:38;;;;;;;6.10;4.65;;;18.00;92.40;;;;;;5073469;28;20048;-86
2021/07/06 04:20:06;;;;;;;8.02;5.03;;;18.10;92.30;;;;;;5038863;28;20109;-87
2021/07/06 04:22:32;;;;;;;7.90;4.85;;;18.10;92.30;;;;;;5072962;28;20091;-87
2021/07/06 04:24:58;;;;;;;6.50;4.72;;;18.10;92.50;;;;;;5073777;28;20048;-87
2021/07/06 04:27:24;;;;;;;9.10;4.85;;;18.10;92.50;;;;;;5072615;28;20083;-85
2021/07/06 04:29:51;;;;;;;10.35;4.63;;;18.10;92.50;;;;;;5073163;28;20044;-87
2021/07/06 04:32:18;;;;;;;8.63;5.00;;;18.10;92.60;;;;;;5073344;28;20075;-85
2021/07/06 04:34:45;;;;;;;8.25;4.70;;;18.10;92.50;;;;;;5071989;28;20056;-86
2021/07/06 04:37:14;;;;;;;7.47;3.90;;;18.10;92.50;;;;;;5056333;28;20052;-87
2021/07/06 04:39:40;;;;;;;5.55;4.00;;;18.10;92.50;;;;;;5073002;28;20123;-87
2021/07/06 04:42:06;;;;;;;6.03;3.90;;;18.10;92.40;;;;;;5072411;28;20052;-89
2021/07/06 04:44:32;;;;;;;8.00;4.00;;;18.10;92.40;;;;;;5072784;28;20048;-86
2021/07/06 04:46:58;;;;;;;6.15;3.65;;;18.20;92.30;;;;;;5073029;28;20462;-85
2021/07/06 04:49:24;;;;;;;7.03;3.50;;;18.20;92.40;;;;;;5072542;28;20044;-86
2021/07/06 04:51:49;;;;;;;6.68;3.33;;;18.20;92.50;;;;;;5072867;28;20052;-87
2021/07/06 04:54:20;;;;;;;6.65;3.08;;;18.20;92.50;;;;;;5072611;28;20044;-88
2021/07/06 04:56:46;;;;;;;6.25;3.08;;;18.20;92.60;;;;;;5072501;28;20456;-87
2021/07/06 04:59:12;;;;;;;6.00;2.70;;;18.20;92.50;;;;;;5073375;28;20480;-87
2021/07/06 05:01:37;;;;;;;6.95;2.58;;;18.20;92.60;;;;;;5075183;28;20070;-88
2021/07/06 05:04:04;;;;;;;5.35;2.60;;;18.30;92.70;;;;;;5078190;28;20093;-87
2021/07/06 05:06:31;;;;;;;4.75;2.30;;;18.30;92.70;;;;;;5072495;28;20056;-88
2021/07/06 05:08:56;;;;;;;8.75;2.75;;;18.30;92.60;;;;;;5073356;28;20044;-86
2021/07/06 05:11:23;;;;;;;4.53;2.15;;;18.30;92.60;;;;;;5071473;28;20506;-88
2021/07/06 05:13:48;;;;;;;7.40;2.20;;;18.30;92.60;;;;;;5073042;28;20128;-88
2021/07/06 05:16:14;;;;;;;5.90;1.83;;;18.40;92.50;;;;;;5072160;28;20143;-87
2021/07/06 05:18:40;;;;;;;5.85;2.00;;;18.40;92.50;;;;;;5072199;28;20060;-89
2021/07/06 05:21:05;;;;;;;3.58;1.50;;;18.40;92.50;;;;;;5062816;28;20066;-87
2021/07/06 05:23:31;;;;;;;7.25;1.70;;;18.40;92.50;;;;;;5071931;28;20537;-85
2021/07/06 05:26:00;;;;;;;4.38;1.80;;;18.50;92.90;;;;;;5072344;28;20393;-86
2021/07/06 05:28:26;;;;;;;3.97;1.70;;;18.60;92.40;;;;;;5072658;28;20070;-86
2021/07/06 05:30:52;;;;;;;5.13;1.65;;;18.60;92.40;;;;;;5072103;28;20044;-84
2021/07/06 05:33:17;;;;;;;5.13;1.70;;;18.60;92.20;;;;;;5073009;28;20174;-86
2021/07/06 05:35:43;;;;;;;4.05;1.70;;;18.70;92.20;;;;;;5072584;28;20051;-86
2021/07/06 05:38:09;;;;;;;5.18;1.60;;;18.70;92.10;;;;;;5072208;28;20045;-85
2021/07/06 05:40:38;;;;;;;3.70;1.30;;;18.80;92.10;;;;;;5072311;28;20102;-85
2021/07/06 05:43:09;;;;;;;4.70;1.45;;;18.80;92.00;;;;;;5072053;28;20053;-86
2021/07/06 05:45:35;;;;;;;3.75;1.20;;;18.80;91.90;;;;;;5067185;28;20242;-85
2021/07/06 05:48:02;;;;;;;3.22;1.40;;;18.80;91.90;;;;;;5085042;28;20097;-85
2021/07/06 05:50:27;;;;;;;3.80;1.33;;;18.80;91.80;;;;;;5075150;28;20068;-87
2021/07/06 05:52:53;;;;;;;3.58;1.40;;;18.80;91.70;;;;;;5074441;28;20048;-86
2021/07/06 05:55:19;;;;;;;6.50;1.30;;;18.80;91.70;;;;;;5075704;28;20052;-87
2021/07/06 05:57:45;;;;;;;4.00;1.35;;;18.80;91.70;;;;;;5076120;28;20056;-87
2021/07/06 06:00:13;;;;;;;4.28;1.40;;;18.90;91.70;;;;;;5075310;28;20557;-87
2021/07/06 06:02:39;;;;;;;3.55;1.17;;;18.90;91.70;;;;;;5076201;28;20053;-87
2021/07/06 06:05:07;;;;;;;3.92;1.48;;;18.90;91.70;;;;;;5075099;28;20106;-88
2021/07/06 06:07:40;;;;;;;5.68;1.77;;;18.90;91.70;;;;;;5073148;28;20044;-87
2021/07/06 06:10:08;;;;;;;3.55;1.30;;;18.90;91.70;;;;;;5074808;28;20407;-87
2021/07/06 06:12:33;;;;;;;3.28;1.27;;;18.90;91.80;;;;;;5075077;28;20056;-86
2021/07/06 06:14:59;;;;;;;6.07;1.30;;;18.90;91.80;;;;;;5075701;28;20049;-86
2021/07/06 06:17:25;;;;;;;3.33;1.40;;;18.90;91.90;;;;;;5075600;28;20056;-87
2021/07/06 06:19:50;;;;;;;6.60;1.60;;;18.90;92.00;;;;;;5075318;28;20056;-87
2021/07/06 06:22:16;;;;;;;5.03;1.50;;;18.90;92.10;;;;;;5075342;28;20401;-86
2021/07/06 06:24:42;;;;;;;3.03;1.40;;;18.90;92.00;;;;;;5075369;28;20518;-86
2021/07/06 06:27:07;;;;;;;4.80;1.45;;;18.90;92.10;;;;;;5081758;28;20053;-87
2021/07/06 06:29:33;;;;;;;3.70;1.38;;;18.90;92.10;;;;;;5084344;28;20047;-87
2021/07/06 06:31:59;;;;;;;3.45;1.70;;;18.90;92.20;;;;;;5077047;28;20052;-88
2021/07/06 06:34:24;;;;;;;4.90;1.60;;;18.90;92.30;;;;;;5077637;28;20415;-84
2021/07/06 06:36:50;;;;;;;5.60;1.70;;;18.90;92.30;;;;;;5073123;28;20097;-87
2021/07/06 06:39:16;;;;;;;4.82;1.50;;;18.90;92.30;;;;;;5083982;28;20047;-86
2021/07/06 06:41:42;;;;;;;7.65;1.55;;;19.00;92.40;;;;;;5074156;28;20060;-87
2021/07/06 06:44:08;;;;;;;6.63;1.52;;;19.00;92.40;;;;;;5066193;28;20472;-86
2021/07/06 06:46:34;;;;;;;5.20;1.73;;;19.00;92.30;;;;;;5075241;28;20098;-85
2021/07/06 06:49:04;;;;;;;4.68;1.60;;;19.00;92.40;;;;;;5074649;28;20106;-86
2021/07/06 06:51:31;;;;;;;7.38;1.70;;;19.00;92.40;;;;;;5075257;28;20102;-86
2021/07/06 06:53:56;;;;;;;3.83;1.70;;;19.00;92.30;;;;;;5072660;28;20041;-86
2021/07/06 06:56:22;;;;;;;4.13;1.63;;;19.00;92.40;;;;;;5055032;28;20060;-86
2021/07/06 06:58:48;;;;;;;4.78;1.65;;;19.00;92.40;;;;;;5074927;28;20056;-87
2021/07/06 07:01:14;;;;;;;5.00;1.50;;;19.00;92.30;;;;;;5075101;28;20071;-86
2021/07/06 07:03:40;;;;;;;5.95;1.35;;;19.00;92.30;;;;;;5073884;28;20083;-87
2021/07/06 07:06:06;;;;;;;5.20;1.60;;;19.10;92.40;;;;;;5074767;28;20044;-86
2021/07/06 07:08:32;;;;;;;3.53;1.38;;;19.10;92.40;;;;;;5074173;28;20159;-86
2021/07/06 07:10:58;;;;;;;6.30;1.45;;;19.10;92.40;;;;;;5073955;28;20136;-86
2021/07/06 07:13:24;;;;;;;4.75;1.60;;;19.10;92.40;;;;;;5082209;28;20046;-87
2021/07/06 07:15:50;;;;;;;5.03;1.55;;;19.10;92.40;;;;;;5086485;28;20052;-87
2021/07/06 07:18:16;;;;;;;4.22;1.60;;;19.10;92.20;;;;;;5079450;28;20098;-87
2021/07/06 07:20:42;;;;;;;7.40;1.70;;;19.10;92.20;;;;;;5073938;28;20085;-87
2021/07/06 07:23:08;;;;;;;5.30;1.73;;;19.20;92.30;;;;;;5071800;28;20036;-87
2021/07/06 07:25:34;;;;;;;4.68;1.70;;;19.20;92.40;;;;;;5053383;28;20052;-85
2021/07/06 07:28:00;;;;;;;5.57;1.60;;;19.20;92.40;;;;;;5074966;28;20132;-87
2021/07/06 07:30:25;;;;;;;5.97;1.60;;;19.20;92.30;;;;;;5069597;28;20080;-86
2021/07/06 07:32:53;;;;;;;6.07;1.80;;;19.30;92.20;;;;;;5074191;28;20045;-87
2021/07/06 07:35:20;;;;;;;6.53;1.70;;;19.30;92.20;;;;;;5074104;28;20048;-87
2021/07/06 07:37:46;;;;;;;7.15;1.73;;;19.30;92.30;;;;;;5055589;28;20044;-88
2021/07/06 07:40:38;;;;;;;4.07;1.40;;;19.30;92.20;;;;;;5031520;28;20053;-86
2021/07/06 07:43:07;;;;;;;5.40;1.48;;;19.40;92.20;;;;;;5038680;28;20053;-88
2021/07/06 07:45:36;;;;;;;5.20;1.70;;;19.40;92.30;;;;;;5019074;28;20045;-85
2021/07/06 07:48:05;;;;;;;6.18;1.70;;;19.40;91.90;;;;;;5032386;28;20049;-88
2021/07/06 07:50:31;;;;;;;4.85;1.60;;;19.50;91.90;;;;;;5031699;28;20049;-87
2021/07/06 07:52:57;;;;;;;5.70;1.60;;;19.50;92.00;;;;;;5031412;28;20057;-86
2021/07/06 07:55:22;;;;;;;5.43;1.60;;;19.50;91.90;;;;;;5041610;28;20049;-87
2021/07/06 07:57:48;;;;;;;5.97;1.83;;;19.60;92.00;;;;;;5031861;28;20416;-85
2021/07/06 08:00:15;;;;;;;4.60;1.70;;;19.60;91.90;;;;;;5029541;28;20456;-85
2021/07/06 08:02:42;;;;;;;6.38;1.63;;;19.70;91.80;;;;;;5031449;28;20152;-83
2021/07/06 08:05:08;;;;;;;4.20;1.70;;;19.70;91.80;;;;;;5030931;28;20045;-83
2021/07/06 08:07:34;;;;;;;4.75;1.52;;;19.80;91.60;;;;;;5031566;28;20053;-87
2021/07/06 08:09:59;;;;;;;5.80;2.35;;;19.80;91.60;;;;;;5031045;28;20108;-88
2021/07/06 08:12:25;;;;;;;4.05;1.70;;;19.80;91.60;;;;;;5034244;28;20045;-87
2021/07/06 08:14:51;;;;;;;5.10;1.58;;;19.90;91.60;;;;;;5031227;28;20053;-87
2021/07/06 08:17:18;;;;;;;5.03;1.88;;;19.90;91.50;;;;;;5039166;28;20053;-90
2021/07/06 08:19:44;;;;;;;6.25;1.73;;;20.00;91.50;;;;;;5073256;28;20127;-84
2021/07/06 08:22:10;;;;;;;6.13;1.77;;;20.00;91.40;;;;;;5074121;28;20110;-87
2021/07/06 08:24:35;;;;;;;6.43;1.80;;;20.00;91.30;;;;;;5071429;28;20068;-89
2021/07/06 08:27:01;;;;;;;5.35;1.67;;;20.00;91.20;;;;;;5073031;28;20109;-88
2021/07/06 08:29:27;;;;;;;3.70;1.63;;;20.10;91.20;;;;;;5073572;28;20034;-88
2021/07/06 08:31:53;;;;;;;3.85;1.50;;;20.10;91.20;;;;;;5071516;28;20048;-88
2021/07/06 08:34:19;;;;;;;5.60;1.77;;;20.20;91.10;;;;;;5072899;28;20041;-90
2021/07/06 08:36:45;;;;;;;6.68;1.50;;;20.20;91.00;;;;;;5073404;28;20075;-88
2021/07/06 08:39:10;;;;;;;4.10;1.58;;;20.20;90.90;;;;;;5074140;28;20048;-88
2021/07/06 08:41:36;;;;;;;5.05;1.50;;;20.20;90.90;;;;;;5068586;28;20055;-88
2021/07/06 08:44:03;;;;;;;4.57;1.58;;;20.30;91.00;;;;;;5068590;28;20048;-89
2021/07/06 08:46:31;;;;;;;5.00;1.67;;;20.30;90.90;;;;;;5072834;28;20036;-89
2021/07/06 08:48:59;;;;;;;5.43;1.50;;;20.40;90.90;;;;;;5072353;28;20044;-87
2021/07/06 08:51:25;;;;;;;4.43;1.35;;;20.40;90.70;;;;;;5073481;28;20052;-87
2021/07/06 08:53:51;;;;;;;5.15;1.60;;;20.50;90.60;;;;;;5073148;28;20046;-88
2021/07/06 08:56:17;;;;;;;3.95;1.60;;;20.50;90.50;;;;;;5072715;28;20053;-88
2021/07/06 08:58:42;;;;;;;6.93;1.73;;;20.50;90.50;;;;;;5073207;28;20033;-87
2021/07/06 09:01:09;;;;;;;6.05;1.50;;;20.60;90.50;;;;;;5072470;28;20458;-86
2021/07/06 09:03:54;;;;;;;5.00;1.60;;;20.60;90.30;;;;;;5071658;28;20041;-87
2021/07/06 09:06:24;;;;;;;5.85;1.55;;;20.70;90.10;;;;;;5072315;28;20059;-88
2021/07/06 09:08:51;;;;;;;4.75;1.40;;;20.70;90.00;;;;;;5072420;28;20053;-86
2021/07/06 09:11:18;;;;;;;5.65;1.50;;;20.70;90.00;;;;;;5073785;28;20144;-88
2021/07/06 09:13:44;;;;;;;5.93;1.42;;;20.70;89.90;;;;;;5072732;28;20044;-89
2021/07/06 09:16:20;;;;;;;5.65;1.30;;;20.70;90.00;;;;;;5073541;28;20147;-88
2021/07/06 09:18:47;;;;;;;4.35;1.40;;;20.80;90.00;;;;;;5080634;28;20128;-89
2021/07/06 09:21:13;;;;;;;3.88;1.20;;;20.90;89.30;;;;;;5075845;28;20075;-90
2021/07/06 09:23:45;;;;;;;3.10;1.30;;;21.00;89.00;;;;;;5076799;28;20052;-88
2021/07/06 09:26:17;;;;;;;5.50;1.25;;;21.10;88.40;;;;;;5077550;28;20430;-89
2021/07/06 09:28:47;;;;;;;4.15;1.23;;;21.20;88.30;;;;;;5074873;28;20389;-87
2021/07/06 09:31:34;;;;;;;5.00;1.30;;;21.30;87.80;;;;;;5075037;28;20114;-89
2021/07/06 09:34:04;;;;;;;5.30;1.30;;;21.40;86.40;;;;;;5077138;28;20538;-90
2021/07/06 09:36:49;;;;;;;4.55;1.02;;;21.50;86.10;;;;;;5075879;28;20098;-88
2021/07/06 09:39:25;;;;;;;5.32;1.20;;;21.50;84.80;;;;;;5075384;28;20135;-88
2021/07/06 09:42:02;;;;;;;3.95;1.02;;;21.60;85.30;;;;;;5077016;28;20044;-89
2021/07/06 09:44:28;;;;;;;4.18;1.17;;;21.70;84.80;;;;;;5076354;28;20507;-89
2021/07/06 09:46:58;;;;;;;5.97;1.20;;;21.80;84.10;;;;;;5076541;28;20044;-86
2021/07/06 09:49:26;;;;;;;2.88;1.02;;;21.90;83.10;;;;;;5076995;28;20463;-87
2021/07/06 09:51:53;;;;;;;4.88;0.95;;;22.00;83.10;;;;;;5076032;28;20585;-90
2021/07/06 09:54:31;;;;;;;5.50;1.20;;;22.00;82.00;;;;;;5074738;28;20072;-90
2021/07/06 10:00:07;;;;;;;3.70;0.98;;;22.10;81.60;;;;;;5075871;28;20143;-88
2021/07/06 10:02:35;;;;;;;7.72;1.17;;;22.10;81.90;;;;;;5076728;28;20052;-88
2021/07/06 10:05:04;;;;;;;3.75;1.20;;;22.20;82.30;;;;;;5075571;28;20054;-90
2021/07/06 10:07:31;;;;;;;2.67;0.85;;;22.20;81.60;;;;;;5073076;28;20106;-90
2021/07/06 10:09:57;;;;;;;4.22;1.00;;;22.30;80.60;;;;;;5076568;28;20045;-90
2021/07/06 10:12:24;;;;;;;5.80;1.13;;;22.20;79.70;;;;;;5052770;28;20044;-89
2021/07/06 10:14:52;;;;;;;5.97;0.90;;;22.30;79.90;;;;;;5077480;28;20074;-90
2021/07/06 10:17:18;;;;;;;3.17;0.85;;;22.20;80.20;;;;;;5075648;28;20419;-90
2021/07/06 10:19:46;;;;;;;4.10;0.98;;;22.20;80.20;;;;;;5075576;28;20044;-88
2021/07/06 10:22:13;;;;;;;4.95;0.90;;;22.20;79.70;;;;;;5076122;28;20084;-90
2021/07/06 10:24:41;;;;;;;5.22;0.88;;;22.20;79.40;;;;;;5076359;28;20067;-90
2021/07/06 10:27:12;;;;;;;4.05;1.00;;;22.20;80.40;;;;;;5075236;28;20131;-88
2021/07/06 10:29:41;;;;;;;4.78;0.90;;;22.30;80.80;;;;;;5078050;28;20048;-88
2021/07/06 10:32:07;;;;;;;5.90;1.13;;;22.40;80.30;;;;;;5071244;28;20055;-87
2021/07/06 10:34:43;;;;;;;3.30;0.93;;;22.40;79.90;;;;;;5074440;28;20051;-88
2021/07/06 10:37:31;;;;;;;3.15;1.10;;;22.40;79.40;;;;;;5075039;28;20406;-88
2021/07/06 10:40:23;;;;;;;4.47;0.90;;;22.40;78.80;;;;;;5074799;28;20082;-85
2021/07/06 10:42:52;;;;;;;5.43;1.20;;;22.40;78.40;;;;;;5074183;28;20044;-85
2021/07/06 10:45:32;;;;;;;4.25;0.90;;;22.40;78.40;;;;;;5074958;28;20503;-86
2021/07/06 10:47:58;;;;;;;5.05;1.10;;;22.40;78.40;;;;;;5074863;28;20480;-87
2021/07/06 10:50:31;;;;;;;4.13;1.15;;;22.40;78.40;;;;;;5075522;28;20186;-86
2021/07/06 10:53:25;;;;;;;5.20;1.10;;;22.40;78.20;;;;;;5075476;28;20094;-87
2021/07/06 10:56:11;;;;;;;3.70;1.10;;;22.40;77.70;;;;;;5057942;28;20049;-88
2021/07/06 10:58:50;;;;;;;6.10;1.13;;;22.40;78.20;;;;;;5075033;28;20392;-90
2021/07/06 11:01:38;;;;;;;3.95;1.17;;;22.50;78.20;;;;;;5075553;28;20141;-88
2021/07/06 11:04:12;;;;;;;6.55;1.20;;;22.50;78.40;;;;;;5071216;28;20048;-88
2021/07/06 11:06:44;;;;;;;6.35;1.05;;;22.60;77.50;;;;;;5074179;28;20076;-88
2021/07/06 11:09:19;;;;;;;5.80;1.10;;;22.70;76.40;;;;;;5070108;28;20059;-85
2021/07/06 11:11:45;;;;;;;5.10;1.10;;;22.60;75.70;;;;;;5094841;28;20048;-85
2021/07/06 11:14:18;;;;;;;5.22;1.20;;;22.70;76.80;;;;;;5094251;28;20104;-85
2021/07/06 11:16:54;;;;;;;;;;;22.60;76.40;;;;;;5094171;28;20058;-85
2021/07/06 11:19:36;;;;;;;3.75;1.13;;;22.60;75.90;;;;;;5095529;28;20359;-87
2021/07/06 11:22:16;;;;;;;3.75;1.13;;;22.50;76.90;;;;;;5094646;28;20125;-84
2021/07/06 11:24:47;;;;;;;4.10;1.13;;;22.50;76.60;;;;;;5085297;28;20049;-86
2021/07/06 11:27:34;;;;;;;5.53;1.10;;;22.50;77.10;;;;;;5072076;28;20137;-85
2021/07/06 11:30:43;;;;;;;7.28;1.27;;;22.50;77.40;;;;;;5073561;28;20506;-87
2021/07/06 11:33:13;;;;;;;4.35;0.98;;;22.50;76.10;;;;;;5058593;28;20044;-85
2021/07/06 11:35:42;;;;;;;5.85;1.30;;;22.50;77.40;;;;;;5073301;28;20492;-86
2021/07/06 11:38:13;;;;;;;5.50;1.00;;;22.60;76.60;;;;;;5073410;28;20044;-85
2021/07/06 11:40:41;;;;;;;4.80;1.05;;;22.70;75.80;;;;;;5073359;28;20403;-85
2021/07/06 11:43:08;;;;;;;4.85;1.23;;;22.70;76.30;;;;;;5073698;28;20056;-85
2021/07/06 11:45:35;;;;;;;8.38;1.35;;;22.70;76.40;;;;;;5072645;28;20040;-87
2021/07/06 11:48:05;;;;;;;5.72;1.23;;;22.60;75.20;;;;;;5073760;28;20399;-87
2021/07/06 11:50:31;;;;;;;6.38;1.10;;;22.60;74.80;;;;;;5070839;28;20106;-86
2021/07/06 11:52:58;;;;;;;7.53;1.10;;;22.60;74.50;;;;;;5073962;28;20048;-86
2021/07/06 11:55:25;;;;;;;6.25;1.05;;;22.50;74.30;;;;;;5073969;28;20048;-85
2021/07/06 11:57:52;;;;;;;5.78;1.10;;;22.50;74.80;;;;;;5072344;28;20041;-86
2021/07/06 12:00:20;;;;;;;7.18;1.17;;;22.50;73.80;;;;;;5073896;28;20068;-86
2021/07/06 12:02:46;;;;;;;5.47;1.10;;;22.50;73.30;;;;;;5055609;28;20502;-86
2021/07/06 12:05:14;;;;;;;4.93;1.00;;;22.50;74.30;;;;;;5070545;28;20095;-86
2021/07/06 12:07:39;;;;;;;5.97;0.90;;;22.50;73.80;;;;;;5071062;28;20059;-86
2021/07/06 12:10:06;;;;;;;7.65;1.10;;;22.50;72.80;;;;;;5073482;28;20131;-85
2021/07/06 12:12:32;;;;;;;3.17;0.90;;;22.40;72.60;;;;;;5073034;28;20056;-85
2021/07/06 12:14:57;;;;;;;3.63;1.00;;;22.40;72.50;;;;;;5073886;28;20044;-85
2021/07/06 12:17:28;;;;;;;6.75;1.20;;;22.40;74.40;;;;;;5072686;28;20076;-84
2021/07/06 12:19:55;;;;;;;5.30;1.02;;;22.40;74.30;;;;;;5070848;28;20044;-85
2021/07/06 12:22:23;;;;;;;8.00;1.13;;;22.40;74.70;;;;;;5071037;28;20053;-84
2021/07/06 12:24:53;;;;;;;4.88;0.88;;;22.40;73.80;;;;;;5070953;28;20048;-87
2021/07/06 12:27:20;;;;;;;5.78;1.10;;;22.40;74.50;;;;;;5073114;28;20147;-87
2021/07/06 12:30:01;;;;;;;5.63;0.90;;;22.40;74.30;;;;;;5073023;28;20048;-87
2021/07/06 12:32:30;;;;;;;4.30;1.05;;;22.40;73.00;;;;;;5070491;28;20448;-86
2021/07/06 12:34:57;;;;;;;4.80;1.00;;;22.50;73.10;;;;;;5066536;28;20067;-88
2021/07/06 12:37:25;;;;;;;6.13;0.98;;;22.50;72.70;;;;;;5071290;28;20117;-86
2021/07/06 12:39:53;;;;;;;5.05;0.88;;;22.50;72.60;;;;;;5078093;28;20047;-87
2021/07/06 12:42:21;;;;;;;6.18;1.08;;;22.50;73.00;;;;;;5073256;28;20139;-89
2021/07/06 12:44:54;;;;;;;4.85;1.20;;;22.50;71.80;;;;;;5073024;28;20056;-87
2021/07/06 12:47:37;;;;;;;8.20;1.05;;;22.40;70.30;;;;;;5072472;28;20087;-87
2021/07/06 12:50:16;;;;;;;8.15;1.23;;;22.40;70.40;;;;;;5070369;28;20541;-86
2021/07/06 12:52:45;;;;;;;11.15;1.30;;;22.30;70.10;;;;;;5082959;28;20119;-89
2021/07/06 12:55:19;;;;;;;9.55;1.13;;;22.30;72.30;;;;;;5075430;28;20097;-87